createdAt,value
2023-04-02T00:01:18.848Z,11.79
2023-04-02T00:04:08.960Z,11.86
2023-04-02T00:06:45.086Z,11.90
2023-04-02T00:09:27.651Z,11.84
2023-04-02T00:11:55.818Z,11.87
2023-04-02T00:14:27.055Z,11.85
2023-04-02T00:16:56.770Z,11.96
2023-04-02T00:19:30.623Z,11.91
2023-04-02T00:21:59.878Z,12.03
2023-04-02T00:24:29.178Z,11.93
2023-04-02T00:26:56.984Z,11.91
2023-04-02T00:29:24.837Z,11.66
2023-04-02T00:31:54.441Z,11.77
2023-04-02T00:34:24.899Z,11.75
2023-04-02T00:36:54.362Z,11.90
2023-04-02T00:39:25.076Z,11.81
2023-04-02T00:41:58.733Z,11.60
2023-04-02T00:44:32.702Z,11.73
2023-04-02T00:47:05.580Z,11.72
2023-04-02T00:49:37.581Z,11.67
2023-04-02T00:52:08.628Z,11.65
2023-04-02T00:54:43.358Z,11.67
2023-04-02T00:57:18.490Z,11.61
2023-04-02T00:59:55.549Z,11.57
2023-04-02T01:02:28.075Z,11.57
2023-04-02T01:04:59.015Z,11.59
2023-04-02T01:07:48.310Z,11.62
2023-04-02T01:10:37.305Z,11.57
2023-04-02T01:13:17.673Z,11.62
2023-04-02T01:15:54.039Z,11.61
2023-04-02T01:18:39.793Z,11.54
2023-04-02T01:21:17.738Z,11.46
2023-04-02T01:23:54.924Z,11.58
2023-04-02T01:26:36.048Z,11.50
2023-04-02T01:29:10.202Z,11.52
2023-04-02T01:31:39.366Z,11.51
2023-04-02T01:34:09.668Z,11.43
2023-04-02T01:36:43.746Z,11.40
2023-04-02T01:39:22.702Z,11.44
2023-04-02T01:41:58.725Z,11.40
2023-04-02T01:44:32.692Z,11.45
2023-04-02T01:47:06.353Z,11.31
2023-04-02T01:49:34.485Z,11.28
2023-04-02T01:52:02.303Z,11.33
2023-04-02T01:54:33.465Z,11.33
2023-04-02T01:57:01.523Z,11.33
2023-04-02T01:59:33.271Z,11.32
2023-04-02T02:02:06.375Z,11.26
2023-04-02T02:04:37.773Z,11.24
2023-04-02T02:07:14.771Z,11.30
2023-04-02T02:09:45.385Z,11.26
2023-04-02T02:12:15.108Z,11.10
2023-04-02T02:14:49.609Z,11.20
2023-04-02T02:17:28.388Z,11.28
2023-04-02T02:19:58.605Z,11.24
2023-04-02T02:22:30.708Z,11.23
2023-04-02T02:25:00.953Z,11.24
2023-04-02T02:27:50.677Z,11.31
2023-04-02T02:30:25.625Z,11.25
2023-04-02T02:33:00.746Z,11.19
2023-04-02T02:35:33.269Z,11.18
2023-04-02T02:38:15.830Z,11.22
2023-04-02T02:40:48.954Z,11.09
2023-04-02T02:43:19.046Z,11.15
2023-04-02T02:45:50.108Z,11.11
2023-04-02T02:48:22.171Z,11.17
2023-04-02T02:50:51.449Z,11.10
2023-04-02T02:53:24.311Z,11.09
2023-04-02T02:55:58.892Z,11.04
2023-04-02T02:58:35.233Z,11.09
2023-04-02T03:01:22.416Z,11.13
2023-04-02T03:03:55.318Z,11.13
2023-04-02T03:06:25.576Z,11.04
2023-04-02T03:09:05.784Z,11.07
2023-04-02T03:11:42.428Z,11.02
2023-04-02T03:14:23.421Z,10.88
2023-04-02T03:16:59.236Z,11.05
2023-04-02T03:19:36.437Z,11.05
2023-04-02T03:22:09.531Z,10.84
2023-04-02T03:24:47.940Z,10.90
2023-04-02T03:27:21.137Z,10.76
2023-04-02T03:29:59.495Z,10.85
2023-04-02T03:32:33.624Z,10.82
2023-04-02T03:35:07.586Z,10.83
2023-04-02T03:37:40.932Z,10.90
2023-04-02T03:40:16.564Z,10.70
2023-04-02T03:42:49.137Z,10.81
2023-04-02T03:45:21.248Z,10.90
2023-04-02T03:47:56.340Z,10.90
2023-04-02T03:50:29.386Z,10.74
2023-04-02T03:53:00.206Z,10.80
2023-04-02T03:55:30.542Z,10.75
2023-04-02T03:58:02.729Z,10.72
2023-04-02T04:00:37.433Z,10.68
2023-04-02T04:03:12.806Z,10.71
2023-04-02T04:05:48.368Z,10.67
2023-04-02T04:08:19.361Z,10.64
2023-04-02T04:10:52.524Z,10.63
2023-04-02T04:13:30.244Z,10.69
2023-04-02T04:16:03.756Z,10.51
2023-04-02T04:18:41.748Z,10.61
2023-04-02T04:21:22.821Z,10.55
2023-04-02T04:23:52.461Z,10.49
2023-04-02T04:26:27.029Z,10.47
2023-04-02T04:29:09.633Z,10.60
2023-04-02T04:31:46.876Z,10.55
2023-04-02T04:34:20.023Z,10.47
2023-04-02T04:36:54.866Z,10.45
2023-04-02T04:39:35.450Z,10.50
2023-04-02T04:42:06.016Z,10.53
2023-04-02T04:44:41.813Z,10.52
2023-04-02T04:47:16.519Z,10.46
2023-04-02T04:49:53.496Z,10.47
2023-04-02T04:52:23.450Z,10.44
2023-04-02T04:54:52.056Z,10.51
2023-04-02T04:57:32.514Z,10.43
2023-04-02T05:00:08.441Z,10.44
2023-04-02T05:02:45.885Z,10.37
2023-04-02T05:05:21.171Z,10.37
2023-04-02T05:07:59.090Z,10.36
2023-04-02T05:10:35.352Z,10.39
2023-04-02T05:13:06.611Z,10.39
2023-04-02T05:15:46.078Z,10.40
2023-04-02T05:18:24.196Z,10.26
2023-04-02T05:21:00.170Z,10.32
2023-04-02T05:23:30.994Z,10.24
2023-04-02T05:26:07.916Z,10.25
2023-04-02T05:28:42.360Z,10.23
2023-04-02T05:31:17.533Z,10.07
2023-04-02T05:33:48.521Z,10.20
2023-04-02T05:36:24.086Z,10.21
2023-04-02T05:38:59.110Z,10.25
2023-04-02T05:41:40.410Z,10.22
2023-04-02T05:44:17.436Z,10.25
2023-04-02T05:46:51.039Z,10.23
2023-04-02T05:49:27.203Z,10.22
2023-04-02T05:52:01.122Z,10.01
2023-04-02T05:54:35.697Z,10.19
2023-04-02T05:57:06.501Z,10.17
2023-04-02T05:59:38.793Z,10.25
2023-04-02T06:02:12.835Z,10.16
2023-04-02T06:04:47.972Z,10.23
2023-04-02T06:07:22.906Z,10.24
2023-04-02T06:10:05.077Z,10.21
2023-04-02T06:12:40.412Z,10.23
2023-04-02T06:15:27.569Z,10.30
2023-04-02T06:18:09.862Z,10.30
2023-04-02T06:20:40.649Z,10.29
2023-04-02T06:23:17.488Z,10.36
2023-04-02T06:25:49.870Z,10.34
2023-04-02T06:28:25.666Z,10.35
2023-04-02T06:31:00.652Z,10.27
2023-04-02T06:33:34.988Z,10.37
2023-04-02T06:36:05.051Z,10.39
2023-04-02T06:38:38.820Z,10.29
2023-04-02T06:41:18.595Z,10.57
2023-04-02T06:44:02.387Z,10.49
2023-04-02T06:46:52.548Z,10.41
2023-04-02T06:49:24.746Z,10.50
2023-04-02T06:52:01.328Z,10.64
2023-04-02T06:54:32.479Z,10.49
2023-04-02T06:57:08.258Z,10.60
2023-04-02T06:59:39.292Z,10.60
2023-04-02T07:02:27.718Z,10.50
2023-04-02T07:05:00.195Z,10.55
2023-04-02T07:07:28.570Z,10.60
2023-04-02T07:09:58.411Z,10.61
2023-04-02T07:12:28.982Z,10.54
2023-04-02T07:14:56.842Z,10.56
2023-04-02T07:17:27.750Z,10.57
2023-04-02T07:19:55.652Z,10.55
2023-04-02T07:22:26.978Z,10.51
2023-04-02T07:25:02.536Z,10.51
2023-04-02T07:27:30.371Z,10.46
2023-04-02T07:29:58.162Z,10.45
2023-04-02T07:32:26.177Z,10.43
2023-04-02T07:34:53.953Z,10.44
2023-04-02T07:37:21.598Z,10.60
2023-04-02T07:39:49.298Z,10.51
2023-04-02T07:42:18.402Z,10.55
2023-04-02T07:44:46.103Z,10.43
2023-04-02T07:47:17.156Z,10.48
2023-04-02T07:49:45.133Z,10.45
2023-04-02T07:52:12.979Z,10.35
2023-04-02T07:54:40.871Z,10.38
2023-04-02T07:57:08.681Z,10.39
2023-04-02T07:59:37.757Z,10.40
2023-04-02T08:02:06.078Z,10.41
2023-04-02T08:04:33.861Z,10.29
2023-04-02T08:07:01.587Z,10.37
2023-04-02T08:09:29.314Z,10.38
2023-04-02T08:11:57.051Z,10.37
2023-04-02T08:14:24.841Z,10.36
2023-04-02T08:16:56.493Z,10.31
2023-04-02T08:19:24.464Z,10.14
2023-04-02T08:21:52.676Z,10.30
2023-04-02T08:24:21.332Z,10.35
2023-04-02T08:26:51.335Z,10.33
2023-04-02T08:29:19.258Z,10.38
2023-04-02T08:31:47.282Z,10.37
2023-04-02T08:34:16.391Z,10.40
2023-04-02T08:36:48.766Z,10.35
2023-04-02T08:39:19.770Z,10.36
2023-04-02T08:41:52.767Z,10.36
2023-04-02T08:44:36.648Z,10.31
2023-04-02T08:47:08.556Z,10.17
2023-04-02T08:49:52.763Z,10.02
2023-04-02T08:52:26.664Z,10.26
2023-04-02T08:54:56.237Z,10.25
2023-04-02T08:57:33.558Z,10.36
2023-04-02T09:00:22.885Z,10.23
2023-04-02T09:02:57.156Z,10.35
2023-04-02T09:05:29.250Z,10.31
2023-04-02T09:07:59.350Z,10.17
2023-04-02T09:10:38.348Z,10.18
2023-04-02T09:13:14.972Z,10.23
2023-04-02T09:15:42.930Z,10.51
2023-04-02T09:18:16.125Z,10.46
2023-04-02T09:20:48.025Z,10.43
2023-04-02T09:23:19.385Z,10.39
2023-04-02T09:26:03.009Z,10.43
2023-04-02T09:28:31.774Z,10.50
2023-04-02T09:31:07.289Z,10.36
2023-04-02T09:33:42.866Z,10.50
2023-04-02T09:36:20.639Z,10.51
2023-04-02T09:39:00.691Z,10.10
2023-04-02T09:41:30.683Z,10.09
2023-04-02T09:44:19.580Z,9.75
2023-04-02T09:46:59.557Z,9.93
2023-04-02T09:49:29.352Z,9.96
2023-04-02T09:52:29.845Z,10.15
2023-04-02T09:55:19.913Z,9.95
2023-04-02T09:57:49.081Z,10.35
2023-04-02T10:03:03.570Z,10.18
2023-04-02T10:05:40.464Z,10.26
2023-04-02T10:08:26.324Z,10.35
2023-04-02T10:11:00.641Z,10.43
2023-04-02T10:13:33.166Z,10.21
2023-04-02T10:16:05.376Z,10.46
2023-04-02T10:18:45.596Z,10.56
2023-04-02T10:21:17.057Z,10.61
2023-04-02T10:23:46.287Z,10.37
2023-04-02T10:26:31.183Z,10.53
2023-04-02T10:29:17.382Z,10.58
2023-04-02T10:31:53.653Z,10.65
2023-04-02T10:34:27.902Z,10.65
2023-04-02T10:36:58.996Z,10.50
2023-04-02T10:39:36.670Z,10.73
2023-04-02T10:42:10.427Z,10.61
2023-04-02T10:44:49.562Z,10.67
2023-04-02T10:47:28.798Z,10.67
2023-04-02T10:50:07.958Z,10.64
2023-04-02T10:52:40.775Z,10.49
2023-04-02T10:55:17.698Z,10.62
2023-04-02T10:57:46.628Z,10.72
2023-04-02T11:00:22.301Z,10.93
2023-04-02T11:02:56.262Z,10.95
2023-04-02T11:05:37.183Z,11.15
2023-04-02T11:08:11.570Z,11.26
2023-04-02T11:10:47.138Z,11.25
2023-04-02T11:13:23.906Z,11.14
2023-04-02T11:15:54.713Z,11.04
2023-04-02T11:18:29.633Z,11.10
2023-04-02T11:21:03.094Z,11.12
2023-04-02T11:23:34.472Z,11.13
2023-04-02T11:26:45.207Z,11.19
2023-04-02T11:29:19.393Z,11.09
2023-04-02T11:31:47.885Z,10.98
2023-04-02T11:34:37.704Z,11.08
2023-04-02T11:37:10.721Z,11.11
2023-04-02T11:39:57.219Z,11.12
2023-04-02T11:42:30.568Z,11.23
2023-04-02T11:45:02.100Z,11.20
2023-04-02T11:47:31.078Z,11.13
2023-04-02T11:50:31.351Z,11.01
2023-04-02T11:53:04.413Z,11.06
2023-04-02T11:55:34.325Z,10.98
2023-04-02T11:58:30.408Z,11.07
2023-04-02T12:01:29.777Z,11.09
2023-04-02T12:04:13.004Z,10.96
2023-04-02T12:06:55.970Z,10.98
2023-04-02T12:09:27.874Z,11.01
2023-04-02T12:11:58.862Z,10.98
2023-04-02T12:14:35.356Z,10.90
2023-04-02T12:17:07.782Z,10.92
2023-04-02T12:19:37.176Z,10.96
2023-04-02T12:22:05.012Z,10.96
2023-04-02T12:24:34.385Z,10.95
2023-04-02T12:27:15.676Z,10.96
2023-04-02T12:29:44.129Z,10.96
2023-04-02T12:32:22.631Z,10.93
2023-04-02T12:34:52.334Z,10.99
2023-04-02T12:37:27.020Z,11.00
2023-04-02T12:39:59.303Z,11.09
2023-04-02T12:42:32.701Z,11.14
2023-04-02T12:45:00.764Z,11.11
2023-04-02T12:47:29.912Z,11.11
2023-04-02T12:49:59.755Z,11.11
2023-04-02T12:52:30.348Z,11.08
2023-04-02T12:55:02.508Z,11.11
2023-04-02T12:57:40.925Z,11.17
2023-04-02T13:00:34.219Z,11.23
2023-04-02T13:03:17.377Z,11.28
2023-04-02T13:05:49.421Z,11.27
2023-04-02T13:08:23.930Z,11.26
2023-04-02T13:10:58.783Z,11.22
2023-04-02T13:13:30.339Z,11.14
2023-04-02T13:16:24.992Z,11.30
2023-04-02T13:18:53.384Z,11.28
2023-04-02T13:21:28.330Z,11.32
2023-04-02T13:23:56.758Z,11.32
2023-04-02T13:26:27.266Z,11.37
2023-04-02T13:29:01.638Z,11.40
2023-04-02T13:31:30.221Z,11.42
2023-04-02T13:34:00.542Z,11.56
2023-04-02T13:36:29.628Z,11.57
2023-04-02T13:38:57.584Z,11.48
2023-04-02T13:41:28.593Z,11.56
2023-04-02T13:43:59.571Z,11.62
2023-04-02T13:46:28.955Z,11.53
2023-04-02T13:48:57.705Z,11.54
2023-04-02T13:51:33.027Z,11.54
2023-04-02T13:54:00.702Z,11.49
2023-04-02T13:56:29.802Z,11.46
2023-04-02T13:58:57.523Z,11.50
2023-04-02T14:01:26.232Z,11.51
2023-04-02T14:03:55.661Z,11.40
2023-04-02T14:06:31.863Z,11.60
2023-04-02T14:09:05.132Z,11.58
2023-04-02T14:11:48.401Z,11.57
2023-04-02T14:14:31.057Z,11.47
2023-04-02T14:17:12.276Z,11.36
2023-04-02T14:20:05.843Z,11.19
2023-04-02T14:22:45.640Z,11.17
2023-04-02T14:25:23.835Z,11.16
2023-04-02T14:28:02.910Z,11.04
2023-04-02T14:30:46.460Z,11.06
2023-04-02T14:33:27.252Z,11.06
2023-04-02T14:36:04.031Z,11.10
2023-04-02T14:38:36.548Z,11.02
2023-04-02T14:41:09.278Z,11.11
2023-04-02T14:43:46.192Z,11.11
2023-04-02T14:46:14.225Z,11.12
2023-04-02T14:48:47.826Z,11.07
2023-04-02T14:51:23.250Z,11.02
2023-04-02T14:53:59.487Z,11.22
2023-04-02T14:56:27.617Z,11.24
2023-04-02T14:59:13.531Z,11.18
2023-04-02T15:01:46.982Z,11.20
2023-04-02T15:04:19.801Z,11.15
2023-04-02T15:06:52.370Z,11.23
2023-04-02T15:09:24.883Z,11.33
2023-04-02T15:11:56.094Z,11.27
2023-04-02T15:14:31.392Z,11.33
2023-04-02T15:16:59.136Z,11.28
2023-04-02T15:19:26.890Z,11.30
2023-04-02T15:22:10.676Z,11.14
2023-04-02T15:24:50.574Z,11.21
2023-04-02T15:27:37.898Z,11.49
2023-04-02T15:30:14.792Z,11.81
2023-04-02T15:32:44.262Z,11.96
2023-04-02T15:35:31.625Z,12.26
2023-04-02T15:38:06.723Z,12.32
2023-04-02T15:40:45.408Z,12.12
2023-04-02T15:43:20.292Z,11.98
2023-04-02T15:45:56.296Z,11.82
2023-04-02T15:48:56.442Z,11.72
2023-04-02T15:51:37.409Z,11.60
2023-04-02T15:54:19.539Z,11.49
2023-04-02T15:56:53.663Z,11.43
2023-04-02T15:59:51.667Z,11.39
2023-04-02T16:02:39.040Z,11.36
2023-04-02T16:05:12.088Z,11.08
2023-04-02T16:08:03.363Z,11.20
2023-04-02T16:10:42.045Z,11.17
2023-04-02T16:13:18.955Z,11.10
2023-04-02T16:15:52.635Z,10.98
2023-04-02T16:18:33.830Z,10.87
2023-04-02T16:21:03.759Z,10.79
2023-04-02T16:23:36.138Z,10.77
2023-04-02T16:26:13.864Z,10.63
2023-04-02T16:28:48.281Z,10.57
2023-04-02T16:31:24.452Z,10.56
2023-04-02T16:34:02.476Z,10.49
2023-04-02T16:36:50.007Z,10.53
2023-04-02T16:39:31.853Z,10.64
2023-04-02T16:42:11.138Z,10.74
2023-04-02T16:44:52.700Z,10.82
2023-04-02T16:47:38.917Z,11.01
2023-04-02T16:50:19.961Z,11.05
2023-04-02T16:52:57.595Z,11.07
2023-04-02T16:55:37.731Z,11.06
2023-04-02T16:58:24.017Z,11.05
2023-04-02T17:00:55.429Z,10.97
2023-04-02T17:03:42.430Z,10.93
2023-04-02T17:06:25.008Z,10.88
2023-04-02T17:08:58.072Z,10.84
2023-04-02T17:11:34.173Z,10.77
2023-04-02T17:14:06.845Z,10.70
2023-04-02T17:16:42.404Z,10.64
2023-04-02T17:19:12.946Z,10.61
2023-04-02T17:21:45.583Z,10.55
2023-04-02T17:24:22.410Z,10.52
2023-04-02T17:26:53.737Z,10.50
2023-04-02T17:29:26.657Z,10.47
2023-04-02T17:32:00.845Z,10.44
2023-04-02T17:34:29.492Z,10.44
2023-04-02T17:37:08.012Z,10.44
2023-04-02T17:39:42.855Z,10.45
2023-04-02T17:42:16.471Z,10.42
2023-04-02T17:44:53.361Z,10.43
2023-04-02T17:47:22.826Z,10.41
2023-04-02T17:50:25.752Z,10.43
2023-04-02T17:52:59.496Z,10.35
2023-04-02T17:55:34.025Z,10.33
2023-04-02T17:58:12.413Z,10.33
2023-04-02T18:00:51.994Z,10.33
2023-04-02T18:03:37.252Z,10.29
2023-04-02T18:06:09.545Z,10.25
2023-04-02T18:08:53.597Z,10.26
2023-04-02T18:11:32.761Z,10.11
2023-04-02T18:14:05.887Z,10.25
2023-04-02T18:16:46.061Z,10.12
2023-04-02T18:19:19.032Z,10.21
2023-04-02T18:21:59.986Z,10.14
2023-04-02T18:24:42.676Z,10.19
2023-04-02T18:27:26.209Z,10.14
2023-04-02T18:30:06.483Z,10.16
2023-04-02T18:33:02.381Z,10.11
2023-04-02T18:35:34.228Z,10.07
2023-04-02T18:38:17.119Z,10.07
2023-04-02T18:41:03.208Z,9.92
2023-04-02T18:43:42.917Z,9.92
2023-04-02T18:46:19.558Z,9.74
2023-04-02T18:48:56.806Z,9.83
2023-04-02T18:51:26.289Z,9.79
2023-04-02T18:54:06.113Z,9.87
2023-04-02T18:56:38.843Z,9.87
2023-04-02T18:59:29.609Z,9.78
2023-04-02T19:01:59.639Z,9.82
2023-04-02T19:04:29.974Z,9.77
2023-04-02T19:07:03.744Z,9.72
2023-04-02T19:09:33.717Z,9.77
2023-04-02T19:12:03.870Z,9.70
2023-04-02T19:14:31.777Z,9.69
2023-04-02T19:17:03.151Z,9.59
2023-04-02T19:19:38.156Z,9.66
2023-04-02T19:22:16.730Z,9.63
2023-04-02T19:25:02.419Z,9.59
2023-04-02T19:27:42.546Z,9.62
2023-04-02T19:30:33.042Z,9.66
2023-04-02T19:33:10.039Z,9.61
2023-04-02T19:35:44.792Z,9.50
2023-04-02T19:38:24.376Z,9.39
2023-04-02T19:40:55.849Z,9.38
2023-04-02T19:43:24.884Z,9.30
2023-04-02T19:45:55.251Z,9.30
2023-04-02T19:48:26.815Z,9.17
2023-04-02T19:50:55.282Z,9.18
2023-04-02T19:53:25.923Z,9.14
2023-04-02T19:55:57.451Z,8.99
2023-04-02T19:58:29.200Z,9.00
2023-04-02T20:00:57.723Z,8.84
2023-04-02T20:03:25.801Z,8.97
2023-04-02T20:05:53.882Z,8.91
2023-04-02T20:08:21.696Z,8.88
2023-04-02T20:10:49.851Z,8.81
2023-04-02T20:13:18.119Z,8.77
2023-04-02T20:15:47.281Z,8.73
2023-04-02T20:18:17.990Z,8.83
2023-04-02T20:20:46.553Z,8.73
2023-04-02T20:23:14.366Z,8.76
2023-04-02T20:25:46.278Z,8.66
2023-04-02T20:28:16.434Z,8.72
2023-04-02T20:30:44.232Z,8.66
2023-04-02T20:33:13.999Z,8.61
2023-04-02T20:35:41.814Z,8.50
2023-04-02T20:38:09.577Z,8.47
2023-04-02T20:40:37.546Z,8.49
2023-04-02T20:43:06.943Z,8.47
2023-04-02T20:45:34.776Z,8.46
2023-04-02T20:48:02.973Z,8.40
2023-04-02T20:50:32.535Z,8.41
2023-04-02T20:53:01.574Z,8.38
2023-04-02T20:55:31.469Z,8.35
2023-04-02T20:57:59.155Z,8.31
2023-04-02T21:00:27.282Z,8.22
2023-04-02T21:02:55.044Z,8.13
2023-04-02T21:05:25.745Z,8.13
2023-04-02T21:07:54.893Z,8.07
2023-04-02T21:10:22.587Z,8.02
2023-04-02T21:12:50.508Z,7.99
2023-04-02T21:15:19.777Z,7.94
2023-04-02T21:17:50.557Z,7.90
2023-04-02T21:20:18.358Z,8.00
2023-04-02T21:22:46.049Z,7.97
2023-04-02T21:25:15.388Z,8.00
2023-04-02T21:27:43.101Z,7.83
2023-04-02T21:30:11.864Z,7.90
2023-04-02T21:32:39.683Z,7.84
2023-04-02T21:35:09.028Z,7.92
2023-04-02T21:37:36.869Z,7.90
2023-04-02T21:40:05.574Z,7.83
2023-04-02T21:42:34.599Z,7.78
2023-04-02T21:45:02.407Z,7.67
2023-04-02T21:47:30.296Z,7.49
2023-04-02T21:49:58.066Z,7.46
2023-04-02T21:52:25.749Z,7.35
2023-04-02T21:54:53.573Z,7.37
2023-04-02T21:57:21.316Z,7.37
2023-04-02T21:59:50.415Z,7.36
2023-04-02T22:02:18.151Z,7.46
2023-04-02T22:04:45.830Z,7.49
2023-04-02T22:07:13.557Z,7.50
2023-04-02T22:09:41.378Z,7.44
2023-04-02T22:12:10.112Z,7.38
2023-04-02T22:14:39.422Z,7.36
2023-04-02T22:17:08.589Z,7.52
2023-04-02T22:19:36.388Z,7.56
2023-04-02T22:22:04.179Z,7.56
2023-04-02T22:24:31.990Z,7.59
2023-04-02T22:26:59.668Z,7.69
2023-04-02T22:29:27.410Z,7.74
2023-04-02T22:31:55.385Z,7.71
2023-04-02T22:34:24.552Z,7.69
2023-04-02T22:36:52.991Z,7.68
2023-04-02T22:39:20.891Z,7.65
2023-04-02T22:41:48.605Z,7.63
2023-04-02T22:44:16.978Z,7.52
2023-04-02T22:46:44.829Z,7.46
2023-04-02T22:49:18.854Z,7.44
2023-04-02T22:51:47.999Z,7.40
2023-04-02T22:54:15.916Z,7.39
2023-04-02T22:56:43.670Z,7.38
2023-04-02T22:59:11.415Z,7.32
2023-04-02T23:01:39.214Z,7.29
2023-04-02T23:04:06.969Z,7.39
2023-04-02T23:06:34.830Z,7.40
2023-04-02T23:09:04.107Z,7.40
2023-04-02T23:11:31.932Z,7.35
2023-04-02T23:13:59.870Z,7.32
2023-04-02T23:16:29.666Z,7.26
2023-04-02T23:18:57.830Z,7.24
2023-04-02T23:21:26.578Z,7.26
2023-04-02T23:23:54.426Z,7.35
2023-04-02T23:26:26.044Z,7.25
2023-04-02T23:28:53.845Z,7.14
2023-04-02T23:31:23.764Z,7.22
2023-04-02T23:33:52.329Z,7.16
2023-04-02T23:36:22.935Z,7.10
2023-04-02T23:38:54.888Z,7.13
2023-04-02T23:41:26.758Z,7.25
2023-04-02T23:43:55.088Z,7.07
2023-04-02T23:46:23.629Z,7.02
2023-04-02T23:48:51.836Z,6.95
2023-04-02T23:51:20.068Z,6.96
2023-04-02T23:53:47.787Z,6.96
2023-04-02T23:56:15.687Z,6.87
2023-04-02T23:58:44.752Z,6.91
